sensor_id;sensor_type;location;lat;lon;timestamp;temperature;humidity
24664;DHT22;12791;50.992;13.788;2023-06-01T00:01:26;15.40;59.70
24664;DHT22;12791;50.992;13.788;2023-06-01T00:03:58;15.30;59.80
24664;DHT22;12791;50.992;13.788;2023-06-01T00:06:25;15.30;60.10
24664;DHT22;12791;50.992;13.788;2023-06-01T00:08:53;15.30;60.30
24664;DHT22;12791;50.992;13.788;2023-06-01T00:11:21;15.20;60.40
24664;DHT22;12791;50.992;13.788;2023-06-01T00:13:48;15.20;60.50
24664;DHT22;12791;50.992;13.788;2023-06-01T00:16:16;15.20;60.70
24664;DHT22;12791;50.992;13.788;2023-06-01T00:18:43;15.10;60.80
24664;DHT22;12791;50.992;13.788;2023-06-01T00:21:10;15.00;60.80
24664;DHT22;12791;50.992;13.788;2023-06-01T00:23:37;15.00;61.30
24664;DHT22;12791;50.992;13.788;2023-06-01T00:26:06;14.90;61.60
24664;DHT22;12791;50.992;13.788;2023-06-01T00:28:35;14.90;61.90
24664;DHT22;12791;50.992;13.788;2023-06-01T00:31:01;14.90;62.30
24664;DHT22;12791;50.992;13.788;2023-06-01T00:33:28;14.90;62.60
24664;DHT22;12791;50.992;13.788;2023-06-01T00:35:55;14.80;62.50
24664;DHT22;12791;50.992;13.788;2023-06-01T00:38:21;14.70;62.40
24664;DHT22;12791;50.992;13.788;2023-06-01T00:40:48;14.60;62.30
24664;DHT22;12791;50.992;13.788;2023-06-01T00:43:16;14.50;62.30
24664;DHT22;12791;50.992;13.788;2023-06-01T00:45:44;14.50;63.10
24664;DHT22;12791;50.992;13.788;2023-06-01T00:48:11;14.50;63.40
24664;DHT22;12791;50.992;13.788;2023-06-01T00:50:39;14.40;63.50
24664;DHT22;12791;50.992;13.788;2023-06-01T00:53:07;14.40;63.50
24664;DHT22;12791;50.992;13.788;2023-06-01T00:55:36;14.40;63.40
24664;DHT22;12791;50.992;13.788;2023-06-01T00:58:03;14.50;63.50
24664;DHT22;12791;50.992;13.788;2023-06-01T01:00:32;14.40;63.40
24664;DHT22;12791;50.992;13.788;2023-06-01T01:03:00;14.50;63.50
24664;DHT22;12791;50.992;13.788;2023-06-01T01:05:33;14.40;63.40
24664;DHT22;12791;50.992;13.788;2023-06-01T01:08:07;14.40;63.80
24664;DHT22;12791;50.992;13.788;2023-06-01T01:10:39;14.30;63.90
24664;DHT22;12791;50.992;13.788;2023-06-01T01:13:10;14.30;64.10
24664;DHT22;12791;50.992;13.788;2023-06-01T01:15:47;14.30;64.20
24664;DHT22;12791;50.992;13.788;2023-06-01T01:18:25;14.30;64.40
24664;DHT22;12791;50.992;13.788;2023-06-01T01:20:58;14.20;64.40
24664;DHT22;12791;50.992;13.788;2023-06-01T01:23:38;14.20;64.40
24664;DHT22;12791;50.992;13.788;2023-06-01T01:26:20;14.20;64.60
24664;DHT22;12791;50.992;13.788;2023-06-01T01:28:53;14.10;64.40
24664;DHT22;12791;50.992;13.788;2023-06-01T01:31:23;14.10;64.50
24664;DHT22;12791;50.992;13.788;2023-06-01T01:33:51;14.10;64.60
24664;DHT22;12791;50.992;13.788;2023-06-01T01:36:19;14.10;64.70
24664;DHT22;12791;50.992;13.788;2023-06-01T01:38:47;14.10;64.80
24664;DHT22;12791;50.992;13.788;2023-06-01T01:41:13;14.10;64.90
24664;DHT22;12791;50.992;13.788;2023-06-01T01:43:40;14.00;64.70
24664;DHT22;12791;50.992;13.788;2023-06-01T01:46:17;13.90;64.80
24664;DHT22;12791;50.992;13.788;2023-06-01T01:48:50;13.80;65.00
24664;DHT22;12791;50.992;13.788;2023-06-01T01:51:22;13.80;65.50
24664;DHT22;12791;50.992;13.788;2023-06-01T01:53:51;13.80;65.50
24664;DHT22;12791;50.992;13.788;2023-06-01T01:56:19;13.80;65.70
24664;DHT22;12791;50.992;13.788;2023-06-01T01:58:47;13.80;65.80
24664;DHT22;12791;50.992;13.788;2023-06-01T02:01:16;13.80;66.10
24664;DHT22;12791;50.992;13.788;2023-06-01T02:03:43;13.80;66.10
24664;DHT22;12791;50.992;13.788;2023-06-01T02:06:10;13.70;66.10
24664;DHT22;12791;50.992;13.788;2023-06-01T02:08:36;13.70;66.00
24664;DHT22;12791;50.992;13.788;2023-06-01T02:11:03;13.70;66.00
24664;DHT22;12791;50.992;13.788;2023-06-01T02:13:30;13.70;65.90
24664;DHT22;12791;50.992;13.788;2023-06-01T02:15:56;13.60;66.00
24664;DHT22;12791;50.992;13.788;2023-06-01T02:18:24;13.50;66.20
24664;DHT22;12791;50.992;13.788;2023-06-01T02:20:51;13.50;66.70
24664;DHT22;12791;50.992;13.788;2023-06-01T02:23:18;13.50;67.10
24664;DHT22;12791;50.992;13.788;2023-06-01T02:25:44;13.50;67.30
24664;DHT22;12791;50.992;13.788;2023-06-01T02:28:11;13.50;67.50
24664;DHT22;12791;50.992;13.788;2023-06-01T02:30:37;13.50;67.40
24664;DHT22;12791;50.992;13.788;2023-06-01T02:33:04;13.50;67.40
24664;DHT22;12791;50.992;13.788;2023-06-01T02:35:32;13.40;67.20
24664;DHT22;12791;50.992;13.788;2023-06-01T02:37:58;13.40;67.20
24664;DHT22;12791;50.992;13.788;2023-06-01T02:40:25;13.40;67.20
24664;DHT22;12791;50.992;13.788;2023-06-01T02:42:52;13.40;67.40
24664;DHT22;12791;50.992;13.788;2023-06-01T02:45:18;13.30;68.00
24664;DHT22;12791;50.992;13.788;2023-06-01T02:47:45;13.30;67.70
24664;DHT22;12791;50.992;13.788;2023-06-01T02:50:11;13.30;67.60
24664;DHT22;12791;50.992;13.788;2023-06-01T02:52:39;13.30;67.60
24664;DHT22;12791;50.992;13.788;2023-06-01T02:55:07;13.30;67.60
24664;DHT22;12791;50.992;13.788;2023-06-01T02:57:34;13.20;67.70
24664;DHT22;12791;50.992;13.788;2023-06-01T03:00:01;13.20;68.00
24664;DHT22;12791;50.992;13.788;2023-06-01T03:02:28;13.20;67.90
24664;DHT22;12791;50.992;13.788;2023-06-01T03:04:55;13.10;68.20
24664;DHT22;12791;50.992;13.788;2023-06-01T03:07:21;13.10;68.40
24664;DHT22;12791;50.992;13.788;2023-06-01T03:09:49;13.00;68.40
24664;DHT22;12791;50.992;13.788;2023-06-01T03:12:16;13.00;69.00
24664;DHT22;12791;50.992;13.788;2023-06-01T03:14:42;13.00;69.10
24664;DHT22;12791;50.992;13.788;2023-06-01T03:17:09;12.90;69.60
24664;DHT22;12791;50.992;13.788;2023-06-01T03:19:35;12.90;70.10
24664;DHT22;12791;50.992;13.788;2023-06-01T03:22:02;12.90;70.00
24664;DHT22;12791;50.992;13.788;2023-06-01T03:24:29;12.90;70.00
24664;DHT22;12791;50.992;13.788;2023-06-01T03:26:57;12.80;70.10
24664;DHT22;12791;50.992;13.788;2023-06-01T03:29:23;12.80;70.40
24664;DHT22;12791;50.992;13.788;2023-06-01T03:31:50;12.70;70.50
24664;DHT22;12791;50.992;13.788;2023-06-01T03:34:17;12.70;70.90
24664;DHT22;12791;50.992;13.788;2023-06-01T03:36:45;12.70;71.20
24664;DHT22;12791;50.992;13.788;2023-06-01T03:39:13;12.70;71.10
24664;DHT22;12791;50.992;13.788;2023-06-01T03:41:41;12.80;71.30
24664;DHT22;12791;50.992;13.788;2023-06-01T03:44:09;12.80;71.30
24664;DHT22;12791;50.992;13.788;2023-06-01T03:46:36;12.80;71.40
24664;DHT22;12791;50.992;13.788;2023-06-01T03:49:02;12.80;71.40
24664;DHT22;12791;50.992;13.788;2023-06-01T03:51:29;12.80;71.30
24664;DHT22;12791;50.992;13.788;2023-06-01T03:53:56;12.90;71.40
24664;DHT22;12791;50.992;13.788;2023-06-01T03:56:23;12.90;71.40
24664;DHT22;12791;50.992;13.788;2023-06-01T03:58:50;12.90;71.40
24664;DHT22;12791;50.992;13.788;2023-06-01T04:01:18;12.90;71.40
24664;DHT22;12791;50.992;13.788;2023-06-01T04:03:45;13.00;71.70
24664;DHT22;12791;50.992;13.788;2023-06-01T04:06:14;13.00;71.50
24664;DHT22;12791;50.992;13.788;2023-06-01T04:08:42;13.00;71.50
24664;DHT22;12791;50.992;13.788;2023-06-01T04:11:14;13.00;71.50
24664;DHT22;12791;50.992;13.788;2023-06-01T04:13:40;13.10;72.00
24664;DHT22;12791;50.992;13.788;2023-06-01T04:16:07;13.20;72.30
24664;DHT22;12791;50.992;13.788;2023-06-01T04:18:35;13.20;72.10
24664;DHT22;12791;50.992;13.788;2023-06-01T04:21:02;13.30;72.60
24664;DHT22;12791;50.992;13.788;2023-06-01T04:23:29;13.30;72.70
24664;DHT22;12791;50.992;13.788;2023-06-01T04:25:55;13.30;72.60
24664;DHT22;12791;50.992;13.788;2023-06-01T04:28:25;13.40;72.70
24664;DHT22;12791;50.992;13.788;2023-06-01T04:30:52;13.50;72.70
24664;DHT22;12791;50.992;13.788;2023-06-01T04:33:19;13.50;72.60
24664;DHT22;12791;50.992;13.788;2023-06-01T04:35:48;13.60;72.40
24664;DHT22;12791;50.992;13.788;2023-06-01T04:38:18;13.70;72.90
24664;DHT22;12791;50.992;13.788;2023-06-01T04:40:44;13.70;72.20
24664;DHT22;12791;50.992;13.788;2023-06-01T04:43:11;13.70;72.40
24664;DHT22;12791;50.992;13.788;2023-06-01T04:45:39;13.70;72.80
24664;DHT22;12791;50.992;13.788;2023-06-01T04:48:06;13.70;73.00
24664;DHT22;12791;50.992;13.788;2023-06-01T04:50:34;13.80;72.30
24664;DHT22;12791;50.992;13.788;2023-06-01T04:53:02;13.80;71.40
24664;DHT22;12791;50.992;13.788;2023-06-01T04:55:28;13.80;70.80
24664;DHT22;12791;50.992;13.788;2023-06-01T04:57:55;13.90;70.80
24664;DHT22;12791;50.992;13.788;2023-06-01T05:00:21;13.90;70.30
24664;DHT22;12791;50.992;13.788;2023-06-01T05:02:48;13.90;69.90
24664;DHT22;12791;50.992;13.788;2023-06-01T05:05:15;14.00;69.50
24664;DHT22;12791;50.992;13.788;2023-06-01T05:07:42;14.10;69.30
24664;DHT22;12791;50.992;13.788;2023-06-01T05:10:11;14.20;69.20
24664;DHT22;12791;50.992;13.788;2023-06-01T05:12:38;14.30;69.00
24664;DHT22;12791;50.992;13.788;2023-06-01T05:15:07;14.30;68.70
24664;DHT22;12791;50.992;13.788;2023-06-01T05:17:34;14.40;68.60
24664;DHT22;12791;50.992;13.788;2023-06-01T05:20:01;14.60;68.70
24664;DHT22;12791;50.992;13.788;2023-06-01T05:22:28;14.70;68.40
24664;DHT22;12791;50.992;13.788;2023-06-01T05:24:55;14.80;68.20
24664;DHT22;12791;50.992;13.788;2023-06-01T05:27:23;14.90;68.00
24664;DHT22;12791;50.992;13.788;2023-06-01T05:29:50;15.00;67.70
24664;DHT22;12791;50.992;13.788;2023-06-01T05:32:16;15.10;68.20
24664;DHT22;12791;50.992;13.788;2023-06-01T05:34:43;15.20;66.80
24664;DHT22;12791;50.992;13.788;2023-06-01T05:37:09;15.30;66.60
24664;DHT22;12791;50.992;13.788;2023-06-01T05:39:36;15.30;66.40
24664;DHT22;12791;50.992;13.788;2023-06-01T05:42:03;15.50;66.30
24664;DHT22;12791;50.992;13.788;2023-06-01T05:44:32;15.50;65.60
24664;DHT22;12791;50.992;13.788;2023-06-01T05:46:59;15.50;64.70
24664;DHT22;12791;50.992;13.788;2023-06-01T05:49:25;15.60;64.60
24664;DHT22;12791;50.992;13.788;2023-06-01T05:51:55;15.60;63.50
24664;DHT22;12791;50.992;13.788;2023-06-01T05:54:22;15.70;63.40
24664;DHT22;12791;50.992;13.788;2023-06-01T05:56:48;15.80;63.20
24664;DHT22;12791;50.992;13.788;2023-06-01T05:59:15;15.80;62.40
24664;DHT22;12791;50.992;13.788;2023-06-01T06:01:43;15.90;62.50
24664;DHT22;12791;50.992;13.788;2023-06-01T06:04:10;16.00;62.50
24664;DHT22;12791;50.992;13.788;2023-06-01T06:06:37;16.10;62.30
24664;DHT22;12791;50.992;13.788;2023-06-01T06:09:03;16.10;62.10
24664;DHT22;12791;50.992;13.788;2023-06-01T06:11:30;16.30;62.20
24664;DHT22;12791;50.992;13.788;2023-06-01T06:13:57;16.30;61.90
24664;DHT22;12791;50.992;13.788;2023-06-01T06:16:24;16.40;61.70
24664;DHT22;12791;50.992;13.788;2023-06-01T06:18:52;16.50;61.70
24664;DHT22;12791;50.992;13.788;2023-06-01T06:21:18;16.70;61.50
24664;DHT22;12791;50.992;13.788;2023-06-01T06:23:45;16.70;61.40
24664;DHT22;12791;50.992;13.788;2023-06-01T06:26:11;16.80;61.80
24664;DHT22;12791;50.992;13.788;2023-06-01T06:28:38;16.90;61.60
24664;DHT22;12791;50.992;13.788;2023-06-01T06:31:04;17.00;61.20
24664;DHT22;12791;50.992;13.788;2023-06-01T06:33:31;17.10;60.80
24664;DHT22;12791;50.992;13.788;2023-06-01T06:35:59;17.10;60.80
24664;DHT22;12791;50.992;13.788;2023-06-01T06:38:26;17.20;60.70
24664;DHT22;12791;50.992;13.788;2023-06-01T06:40:52;17.30;61.00
24664;DHT22;12791;50.992;13.788;2023-06-01T06:43:19;17.40;60.50
24664;DHT22;12791;50.992;13.788;2023-06-01T06:45:45;17.50;60.20
24664;DHT22;12791;50.992;13.788;2023-06-01T06:48:12;17.60;59.00
24664;DHT22;12791;50.992;13.788;2023-06-01T06:50:39;17.60;59.40
24664;DHT22;12791;50.992;13.788;2023-06-01T06:53:10;17.70;58.50
24664;DHT22;12791;50.992;13.788;2023-06-01T06:55:37;17.80;57.90
24664;DHT22;12791;50.992;13.788;2023-06-01T06:58:03;17.80;58.00
24664;DHT22;12791;50.992;13.788;2023-06-01T07:00:30;17.90;57.90
24664;DHT22;12791;50.992;13.788;2023-06-01T07:02:57;17.90;57.20
24664;DHT22;12791;50.992;13.788;2023-06-01T07:05:25;17.90;57.00
24664;DHT22;12791;50.992;13.788;2023-06-01T07:07:52;17.90;57.70
24664;DHT22;12791;50.992;13.788;2023-06-01T07:10:20;17.90;57.60
24664;DHT22;12791;50.992;13.788;2023-06-01T07:12:46;17.90;57.70
24664;DHT22;12791;50.992;13.788;2023-06-01T07:15:13;17.90;57.50
24664;DHT22;12791;50.992;13.788;2023-06-01T07:17:39;17.90;57.50
24664;DHT22;12791;50.992;13.788;2023-06-01T07:20:07;18.00;57.40
24664;DHT22;12791;50.992;13.788;2023-06-01T07:22:36;18.00;57.40
24664;DHT22;12791;50.992;13.788;2023-06-01T07:25:04;18.00;57.70
24664;DHT22;12791;50.992;13.788;2023-06-01T07:27:32;18.00;58.30
24664;DHT22;12791;50.992;13.788;2023-06-01T07:30:00;18.10;58.40
24664;DHT22;12791;50.992;13.788;2023-06-01T07:32:27;18.10;57.90
24664;DHT22;12791;50.992;13.788;2023-06-01T07:34:53;18.10;57.90
24664;DHT22;12791;50.992;13.788;2023-06-01T07:37:23;18.10;58.20
24664;DHT22;12791;50.992;13.788;2023-06-01T07:39:52;18.10;58.50
24664;DHT22;12791;50.992;13.788;2023-06-01T07:42:19;18.20;58.50
24664;DHT22;12791;50.992;13.788;2023-06-01T07:44:47;18.20;58.20
24664;DHT22;12791;50.992;13.788;2023-06-01T07:47:14;18.30;58.20
24664;DHT22;12791;50.992;13.788;2023-06-01T07:49:41;18.30;58.00
24664;DHT22;12791;50.992;13.788;2023-06-01T07:52:07;18.40;58.60
24664;DHT22;12791;50.992;13.788;2023-06-01T07:54:34;18.40;58.30
24664;DHT22;12791;50.992;13.788;2023-06-01T07:57:02;18.40;58.40
24664;DHT22;12791;50.992;13.788;2023-06-01T07:59:29;18.50;58.50
24664;DHT22;12791;50.992;13.788;2023-06-01T08:01:58;18.50;58.60
24664;DHT22;12791;50.992;13.788;2023-06-01T08:04:25;18.60;58.90
24664;DHT22;12791;50.992;13.788;2023-06-01T08:06:52;18.60;58.80
24664;DHT22;12791;50.992;13.788;2023-06-01T08:09:22;18.70;59.10
24664;DHT22;12791;50.992;13.788;2023-06-01T08:11:49;18.80;58.70
24664;DHT22;12791;50.992;13.788;2023-06-01T08:14:16;18.90;58.70
24664;DHT22;12791;50.992;13.788;2023-06-01T08:16:44;19.00;58.20
24664;DHT22;12791;50.992;13.788;2023-06-01T08:19:12;19.10;57.60
24664;DHT22;12791;50.992;13.788;2023-06-01T08:21:38;19.20;57.60
24664;DHT22;12791;50.992;13.788;2023-06-01T08:24:06;19.30;57.20
24664;DHT22;12791;50.992;13.788;2023-06-01T08:26:34;19.40;56.30
24664;DHT22;12791;50.992;13.788;2023-06-01T08:29:01;19.50;55.90
24664;DHT22;12791;50.992;13.788;2023-06-01T08:31:28;19.50;55.10
24664;DHT22;12791;50.992;13.788;2023-06-01T08:33:55;19.50;54.60
24664;DHT22;12791;50.992;13.788;2023-06-01T08:36:23;19.60;53.60
24664;DHT22;12791;50.992;13.788;2023-06-01T08:38:50;19.60;53.10
24664;DHT22;12791;50.992;13.788;2023-06-01T08:41:20;19.80;52.60
24664;DHT22;12791;50.992;13.788;2023-06-01T08:43:54;19.80;53.10
24664;DHT22;12791;50.992;13.788;2023-06-01T08:46:21;19.90;52.60
24664;DHT22;12791;50.992;13.788;2023-06-01T08:48:50;19.90;52.70
24664;DHT22;12791;50.992;13.788;2023-06-01T08:51:19;19.90;52.90
24664;DHT22;12791;50.992;13.788;2023-06-01T08:53:49;19.90;53.30
24664;DHT22;12791;50.992;13.788;2023-06-01T08:56:16;19.90;54.00
24664;DHT22;12791;50.992;13.788;2023-06-01T08:58:43;19.90;53.90
24664;DHT22;12791;50.992;13.788;2023-06-01T09:01:15;19.90;52.90
24664;DHT22;12791;50.992;13.788;2023-06-01T09:03:43;20.00;52.70
24664;DHT22;12791;50.992;13.788;2023-06-01T09:06:10;20.00;52.10
24664;DHT22;12791;50.992;13.788;2023-06-01T09:08:37;19.90;51.80
24664;DHT22;12791;50.992;13.788;2023-06-01T09:11:05;20.00;52.10
24664;DHT22;12791;50.992;13.788;2023-06-01T09:13:32;20.00;51.90
24664;DHT22;12791;50.992;13.788;2023-06-01T09:15:59;20.00;52.10
24664;DHT22;12791;50.992;13.788;2023-06-01T09:18:26;20.00;52.30
24664;DHT22;12791;50.992;13.788;2023-06-01T09:20:53;20.10;51.60
24664;DHT22;12791;50.992;13.788;2023-06-01T09:23:26;20.10;52.00
24664;DHT22;12791;50.992;13.788;2023-06-01T09:26:08;20.10;52.00
24664;DHT22;12791;50.992;13.788;2023-06-01T09:28:55;20.10;51.50
24664;DHT22;12791;50.992;13.788;2023-06-01T09:31:39;20.20;52.60
24664;DHT22;12791;50.992;13.788;2023-06-01T09:34:07;20.20;52.20
24664;DHT22;12791;50.992;13.788;2023-06-01T09:36:34;20.30;50.90
24664;DHT22;12791;50.992;13.788;2023-06-01T09:39:03;20.30;50.90
24664;DHT22;12791;50.992;13.788;2023-06-01T09:41:47;20.40;50.80
24664;DHT22;12791;50.992;13.788;2023-06-01T09:44:21;20.50;51.20
24664;DHT22;12791;50.992;13.788;2023-06-01T09:46:48;20.60;49.80
24664;DHT22;12791;50.992;13.788;2023-06-01T09:49:19;20.60;49.80
24664;DHT22;12791;50.992;13.788;2023-06-01T09:51:47;20.60;50.10
24664;DHT22;12791;50.992;13.788;2023-06-01T09:54:27;20.60;50.10
24664;DHT22;12791;50.992;13.788;2023-06-01T09:56:56;20.70;47.70
24664;DHT22;12791;50.992;13.788;2023-06-01T09:59:24;20.60;46.80
24664;DHT22;12791;50.992;13.788;2023-06-01T10:01:52;20.70;47.40
24664;DHT22;12791;50.992;13.788;2023-06-01T10:04:21;20.70;48.00
24664;DHT22;12791;50.992;13.788;2023-06-01T10:06:49;20.70;47.90
24664;DHT22;12791;50.992;13.788;2023-06-01T10:09:18;20.70;48.30
24664;DHT22;12791;50.992;13.788;2023-06-01T10:11:45;20.80;47.90
24664;DHT22;12791;50.992;13.788;2023-06-01T10:14:13;20.80;47.60
24664;DHT22;12791;50.992;13.788;2023-06-01T10:16:41;20.90;47.90
24664;DHT22;12791;50.992;13.788;2023-06-01T10:19:08;20.90;46.80
24664;DHT22;12791;50.992;13.788;2023-06-01T10:21:35;21.00;46.90
24664;DHT22;12791;50.992;13.788;2023-06-01T10:24:02;21.00;46.30
24664;DHT22;12791;50.992;13.788;2023-06-01T10:26:33;21.10;46.40
24664;DHT22;12791;50.992;13.788;2023-06-01T10:29:01;21.20;46.50
24664;DHT22;12791;50.992;13.788;2023-06-01T10:31:34;21.20;46.50
24664;DHT22;12791;50.992;13.788;2023-06-01T10:34:01;21.30;46.00
24664;DHT22;12791;50.992;13.788;2023-06-01T10:39:29;21.40;46.20
24664;DHT22;12791;50.992;13.788;2023-06-01T10:41:57;21.30;46.10
24664;DHT22;12791;50.992;13.788;2023-06-01T10:44:46;21.30;46.20
24664;DHT22;12791;50.992;13.788;2023-06-01T10:47:47;21.40;46.40
24664;DHT22;12791;50.992;13.788;2023-06-01T10:50:17;21.40;46.30
24664;DHT22;12791;50.992;13.788;2023-06-01T10:52:44;21.40;46.70
24664;DHT22;12791;50.992;13.788;2023-06-01T10:55:22;21.40;46.70
24664;DHT22;12791;50.992;13.788;2023-06-01T10:57:48;21.50;46.70
24664;DHT22;12791;50.992;13.788;2023-06-01T11:00:17;21.50;46.80
24664;DHT22;12791;50.992;13.788;2023-06-01T11:02:54;21.50;46.80
24664;DHT22;12791;50.992;13.788;2023-06-01T11:05:34;21.50;47.10
24664;DHT22;12791;50.992;13.788;2023-06-01T11:08:01;21.60;46.80
24664;DHT22;12791;50.992;13.788;2023-06-01T11:10:54;21.70;46.90
24664;DHT22;12791;50.992;13.788;2023-06-01T11:13:25;21.70;46.50
24664;DHT22;12791;50.992;13.788;2023-06-01T11:16:27;21.70;45.30
24664;DHT22;12791;50.992;13.788;2023-06-01T11:18:56;21.70;45.00
24664;DHT22;12791;50.992;13.788;2023-06-01T11:21:25;21.80;44.70
24664;DHT22;12791;50.992;13.788;2023-06-01T11:23:53;21.80;44.70
24664;DHT22;12791;50.992;13.788;2023-06-01T11:26:22;21.80;45.00
24664;DHT22;12791;50.992;13.788;2023-06-01T11:28:50;21.90;45.80
24664;DHT22;12791;50.992;13.788;2023-06-01T11:31:18;22.00;46.30
24664;DHT22;12791;50.992;13.788;2023-06-01T11:33:48;22.10;45.20
24664;DHT22;12791;50.992;13.788;2023-06-01T11:36:19;22.20;44.80
24664;DHT22;12791;50.992;13.788;2023-06-01T11:38:49;22.20;42.70
24664;DHT22;12791;50.992;13.788;2023-06-01T11:41:16;22.20;42.20
24664;DHT22;12791;50.992;13.788;2023-06-01T11:43:42;22.20;42.40
24664;DHT22;12791;50.992;13.788;2023-06-01T11:46:09;22.20;42.90
24664;DHT22;12791;50.992;13.788;2023-06-01T11:48:36;22.20;43.80
24664;DHT22;12791;50.992;13.788;2023-06-01T11:51:03;22.20;43.90
24664;DHT22;12791;50.992;13.788;2023-06-01T11:53:32;22.20;43.10
24664;DHT22;12791;50.992;13.788;2023-06-01T11:55:59;22.20;43.30
24664;DHT22;12791;50.992;13.788;2023-06-01T11:58:27;22.20;43.30
24664;DHT22;12791;50.992;13.788;2023-06-01T12:00:55;22.20;43.80
24664;DHT22;12791;50.992;13.788;2023-06-01T12:03:22;22.30;44.40
24664;DHT22;12791;50.992;13.788;2023-06-01T12:05:50;22.40;43.40
24664;DHT22;12791;50.992;13.788;2023-06-01T12:08:19;22.40;44.10
24664;DHT22;12791;50.992;13.788;2023-06-01T12:10:49;22.50;44.60
24664;DHT22;12791;50.992;13.788;2023-06-01T12:13:17;22.50;44.30
24664;DHT22;12791;50.992;13.788;2023-06-01T12:15:45;22.60;43.80
24664;DHT22;12791;50.992;13.788;2023-06-01T12:18:12;22.60;43.20
24664;DHT22;12791;50.992;13.788;2023-06-01T12:20:40;22.60;42.40
24664;DHT22;12791;50.992;13.788;2023-06-01T12:23:15;22.60;42.50
24664;DHT22;12791;50.992;13.788;2023-06-01T12:25:49;22.70;42.80
24664;DHT22;12791;50.992;13.788;2023-06-01T12:28:17;22.70;42.80
24664;DHT22;12791;50.992;13.788;2023-06-01T12:30:44;22.70;41.40
24664;DHT22;12791;50.992;13.788;2023-06-01T12:33:29;22.60;41.10
24664;DHT22;12791;50.992;13.788;2023-06-01T12:35:57;22.60;40.50
24664;DHT22;12791;50.992;13.788;2023-06-01T12:38:24;22.60;39.80
24664;DHT22;12791;50.992;13.788;2023-06-01T12:41:07;22.60;39.00
24664;DHT22;12791;50.992;13.788;2023-06-01T12:43:35;22.70;39.30
24664;DHT22;12791;50.992;13.788;2023-06-01T12:46:02;22.70;38.80
24664;DHT22;12791;50.992;13.788;2023-06-01T12:48:31;22.70;38.00
24664;DHT22;12791;50.992;13.788;2023-06-01T12:50:58;22.70;37.80
24664;DHT22;12791;50.992;13.788;2023-06-01T12:53:26;22.80;37.80
24664;DHT22;12791;50.992;13.788;2023-06-01T12:55:52;22.80;37.00
24664;DHT22;12791;50.992;13.788;2023-06-01T12:58:20;22.90;36.10
24664;DHT22;12791;50.992;13.788;2023-06-01T13:00:47;22.90;36.30
24664;DHT22;12791;50.992;13.788;2023-06-01T13:03:14;23.00;37.00
24664;DHT22;12791;50.992;13.788;2023-06-01T13:05:41;23.00;37.80
24664;DHT22;12791;50.992;13.788;2023-06-01T13:08:10;23.10;36.80
24664;DHT22;12791;50.992;13.788;2023-06-01T13:10:37;23.10;36.10
24664;DHT22;12791;50.992;13.788;2023-06-01T13:13:04;23.10;35.20
24664;DHT22;12791;50.992;13.788;2023-06-01T13:15:32;23.20;34.90
24664;DHT22;12791;50.992;13.788;2023-06-01T13:17:59;23.20;34.80
24664;DHT22;12791;50.992;13.788;2023-06-01T13:20:26;23.30;35.10
24664;DHT22;12791;50.992;13.788;2023-06-01T13:22:53;23.30;34.40
24664;DHT22;12791;50.992;13.788;2023-06-01T13:25:19;23.40;35.40
24664;DHT22;12791;50.992;13.788;2023-06-01T13:27:46;23.40;35.90
24664;DHT22;12791;50.992;13.788;2023-06-01T13:30:13;23.50;36.00
24664;DHT22;12791;50.992;13.788;2023-06-01T13:32:41;23.60;35.60
24664;DHT22;12791;50.992;13.788;2023-06-01T13:35:08;23.60;35.60
24664;DHT22;12791;50.992;13.788;2023-06-01T13:37:36;23.60;36.50
24664;DHT22;12791;50.992;13.788;2023-06-01T13:40:04;23.60;37.50
24664;DHT22;12791;50.992;13.788;2023-06-01T13:42:31;23.70;38.40
24664;DHT22;12791;50.992;13.788;2023-06-01T13:44:58;23.70;38.20
24664;DHT22;12791;50.992;13.788;2023-06-01T13:47:25;23.70;39.20
24664;DHT22;12791;50.992;13.788;2023-06-01T13:49:53;23.80;38.50
24664;DHT22;12791;50.992;13.788;2023-06-01T13:52:20;23.80;38.80
24664;DHT22;12791;50.992;13.788;2023-06-01T13:54:46;23.80;38.80
24664;DHT22;12791;50.992;13.788;2023-06-01T13:57:13;23.90;39.40
24664;DHT22;12791;50.992;13.788;2023-06-01T13:59:39;23.90;39.50
24664;DHT22;12791;50.992;13.788;2023-06-01T14:02:06;24.00;39.30
24664;DHT22;12791;50.992;13.788;2023-06-01T14:04:34;24.00;39.60
24664;DHT22;12791;50.992;13.788;2023-06-01T14:07:01;24.10;39.70
24664;DHT22;12791;50.992;13.788;2023-06-01T14:09:28;24.20;39.90
24664;DHT22;12791;50.992;13.788;2023-06-01T14:11:55;24.20;39.50
24664;DHT22;12791;50.992;13.788;2023-06-01T14:14:21;24.20;40.00
24664;DHT22;12791;50.992;13.788;2023-06-01T14:16:48;24.30;40.00
24664;DHT22;12791;50.992;13.788;2023-06-01T14:19:15;24.30;39.50
24664;DHT22;12791;50.992;13.788;2023-06-01T14:21:41;24.20;39.30
24664;DHT22;12791;50.992;13.788;2023-06-01T14:24:09;24.20;38.60
24664;DHT22;12791;50.992;13.788;2023-06-01T14:26:36;24.20;37.70
24664;DHT22;12791;50.992;13.788;2023-06-01T14:29:02;24.20;37.70
24664;DHT22;12791;50.992;13.788;2023-06-01T14:31:29;24.20;37.30
24664;DHT22;12791;50.992;13.788;2023-06-01T14:33:56;24.20;37.70
24664;DHT22;12791;50.992;13.788;2023-06-01T14:36:22;24.10;37.60
24664;DHT22;12791;50.992;13.788;2023-06-01T14:38:49;24.20;37.30
24664;DHT22;12791;50.992;13.788;2023-06-01T14:41:17;24.30;36.70
24664;DHT22;12791;50.992;13.788;2023-06-01T14:43:44;24.40;34.00
24664;DHT22;12791;50.992;13.788;2023-06-01T14:46:11;24.40;34.60
24664;DHT22;12791;50.992;13.788;2023-06-01T14:48:38;24.60;34.90
24664;DHT22;12791;50.992;13.788;2023-06-01T14:51:04;24.60;32.90
24664;DHT22;12791;50.992;13.788;2023-06-01T14:53:31;24.60;31.90
24664;DHT22;12791;50.992;13.788;2023-06-01T14:55:57;24.70;31.30
24664;DHT22;12791;50.992;13.788;2023-06-01T14:58:25;24.70;31.00
24664;DHT22;12791;50.992;13.788;2023-06-01T15:00:52;24.70;30.30
24664;DHT22;12791;50.992;13.788;2023-06-01T15:03:20;24.80;30.20
24664;DHT22;12791;50.992;13.788;2023-06-01T15:05:47;24.70;30.40
24664;DHT22;12791;50.992;13.788;2023-06-01T15:08:13;24.70;30.00
24664;DHT22;12791;50.992;13.788;2023-06-01T15:10:40;24.70;28.60
24664;DHT22;12791;50.992;13.788;2023-06-01T15:13:07;24.60;28.70
24664;DHT22;12791;50.992;13.788;2023-06-01T15:15:35;24.50;28.60
24664;DHT22;12791;50.992;13.788;2023-06-01T15:18:01;24.50;29.40
24664;DHT22;12791;50.992;13.788;2023-06-01T15:20:28;24.50;30.30
24664;DHT22;12791;50.992;13.788;2023-06-01T15:22:56;24.50;29.90
24664;DHT22;12791;50.992;13.788;2023-06-01T15:25:22;24.50;30.00